Terminal Aerodrome Forecast
Issued by NWS Hastings, NE

Home | Current Version | Previous Version | Text Only | Print | Product List | Glossary On
Versions: 1 2 3 4 5 6 7 8 9 10 11 12 13 14 15 16 17 18 19 20 21
000
FTUS45 KGID 260520
TAFEAR
TAF
KEAR 260520Z 2606/2706 09007KT P6SM SKC
     FM260900 12007KT 5SM BR SCT010
     FM261100 14006KT 2SM BR OVC008
     FM261700 16005KT P6SM SCT012
     FM262200 VRB06KT P6SM SCT250
      AMD LTD TO CLD VIS AND WIND=

USA.gov is the U.S. government's official web portal to all federal, state and local government web resources and services.